Time;durP1;ratioP1;P1;durP2;ratioP2;P2;SDS_P1;SDS_P2;PMS_P1;PMS_P2;Temp;Humidity;BMP_temperature;BMP_pressure;BME280_temperature;BME280_humidity;BME280_pressure;Samples;Min_cycle;Max_cycle;Signal;HPM_P1;HPM_P2
2023/09/15 00:00:14;;;;;;;7.77;3.40;;;14.40;99.90;;;;;;5061189;28;20221;-65
2023/09/15 00:02:41;;;;;;;6.20;3.30;;;14.50;99.90;;;;;;5061348;28;20209;-64
2023/09/15 00:05:10;;;;;;;4.20;2.90;;;14.40;99.90;;;;;;5064361;28;20678;-66
2023/09/15 00:07:36;;;;;;;3.83;2.87;;;14.40;99.90;;;;;;5064758;28;20339;-64
2023/09/15 00:10:06;;;;;;;3.23;2.80;;;14.30;99.90;;;;;;5061914;28;20208;-64
2023/09/15 00:12:32;;;;;;;3.37;2.80;;;14.30;99.90;;;;;;5060967;28;20206;-64
2023/09/15 00:15:00;;;;;;;4.80;2.83;;;14.40;99.90;;;;;;5063141;28;20213;-64
2023/09/15 00:17:27;;;;;;;5.60;2.57;;;14.30;99.90;;;;;;5064517;28;20248;-64
2023/09/15 00:19:54;;;;;;;3.47;2.97;;;14.20;99.90;;;;;;5062968;28;20758;-64
2023/09/15 00:22:21;;;;;;;3.07;2.77;;;14.20;99.90;;;;;;5061036;28;20233;-64
2023/09/15 00:24:48;;;;;;;3.83;2.57;;;14.20;99.90;;;;;;5062060;28;20213;-64
2023/09/15 00:27:16;;;;;;;3.63;2.20;;;14.20;99.90;;;;;;5064520;28;20225;-63
2023/09/15 00:29:43;;;;;;;2.93;2.30;;;14.10;99.90;;;;;;5064258;28;20662;-66
2023/09/15 00:32:10;;;;;;;3.17;2.43;;;14.10;99.90;;;;;;5052670;28;20675;-64
2023/09/15 00:34:37;;;;;;;2.77;2.57;;;14.00;99.90;;;;;;5060780;28;20206;-64
2023/09/15 00:37:04;;;;;;;5.30;2.80;;;13.90;99.90;;;;;;5063223;28;20225;-64
2023/09/15 00:39:31;;;;;;;3.37;2.53;;;13.90;99.90;;;;;;5064127;28;20244;-64
2023/09/15 00:41:57;;;;;;;4.77;2.77;;;13.90;99.90;;;;;;5062522;28;20201;-64
2023/09/15 00:44:26;;;;;;;2.80;2.53;;;13.80;99.90;;;;;;5060671;28;20300;-64
2023/09/15 00:46:54;;;;;;;3.10;2.67;;;13.80;99.90;;;;;;5061440;28;20233;-64
2023/09/15 00:49:20;;;;;;;3.60;2.77;;;13.60;99.90;;;;;;5064101;28;20246;-65
2023/09/15 00:51:48;;;;;;;4.07;2.67;;;13.60;99.90;;;;;;5063313;28;20283;-65
2023/09/15 00:54:15;;;;;;;3.80;3.07;;;13.50;99.90;;;;;;5060001;28;20237;-64
2023/09/15 00:56:42;;;;;;;3.87;2.93;;;13.50;99.90;;;;;;5059848;28;20245;-64
2023/09/15 00:59:10;;;;;;;3.60;2.63;;;13.50;99.90;;;;;;5063407;28;20785;-64
2023/09/15 01:01:39;;;;;;;3.53;2.77;;;13.50;99.90;;;;;;5063936;28;20201;-65
2023/09/15 01:04:09;;;;;;;7.10;2.40;;;13.50;99.90;;;;;;5060901;28;20296;-65
2023/09/15 01:06:39;;;;;;;3.90;2.73;;;13.50;99.90;;;;;;5060724;28;20225;-64
2023/09/15 01:09:08;;;;;;;3.33;2.50;;;13.50;99.90;;;;;;5063529;28;20201;-64
2023/09/15 01:11:34;;;;;;;4.07;2.90;;;13.50;99.90;;;;;;5063330;28;20239;-64
2023/09/15 01:14:02;;;;;;;3.60;2.57;;;13.50;99.90;;;;;;5060999;28;20201;-67
2023/09/15 01:16:36;;;;;;;4.00;2.73;;;13.50;99.90;;;;;;5059983;28;20221;-65
2023/09/15 01:19:18;;;;;;;3.43;2.40;;;13.40;99.90;;;;;;5062261;28;20228;-65
2023/09/15 01:22:15;;;;;;;2.73;2.40;;;13.40;99.90;;;;;;5063504;28;20371;-64
2023/09/15 01:24:59;;;;;;;3.13;2.50;;;13.40;99.90;;;;;;5055711;28;20690;-65
2023/09/15 01:27:51;;;;;;;2.57;2.37;;;13.30;99.90;;;;;;5053643;28;20232;-65
2023/09/15 01:30:22;;;;;;;2.83;2.63;;;13.30;99.90;;;;;;5052618;28;20202;-66
2023/09/15 01:32:50;;;;;;;3.07;2.77;;;13.20;99.90;;;;;;5060266;28;20480;-66
2023/09/15 01:35:18;;;;;;;3.87;2.90;;;13.20;99.90;;;;;;5063134;28;20221;-66
2023/09/15 01:37:45;;;;;;;3.93;2.77;;;13.10;99.90;;;;;;5063791;28;20228;-65
2023/09/15 01:40:12;;;;;;;5.27;2.50;;;13.10;99.90;;;;;;5051307;28;20218;-67
2023/09/15 01:42:43;;;;;;;2.90;2.43;;;13.10;99.90;;;;;;5059580;28;20567;-65
2023/09/15 01:45:10;;;;;;;3.77;3.00;;;13.00;99.90;;;;;;5062438;28;20201;-66
2023/09/15 01:47:39;;;;;;;3.03;2.57;;;13.00;99.90;;;;;;5090761;22;20228;-61
2023/09/15 01:50:07;;;;;;;5.30;2.67;;;13.00;99.90;;;;;;5060061;28;20201;-62
2023/09/15 01:52:34;;;;;;;3.27;2.97;;;13.00;99.90;;;;;;5059292;28;20205;-60
2023/09/15 01:55:03;;;;;;;7.57;3.10;;;13.00;99.90;;;;;;5060941;28;20630;-60
2023/09/15 01:57:29;;;;;;;3.03;2.73;;;13.10;99.90;;;;;;5051513;28;20232;-60
2023/09/15 01:59:58;;;;;;;3.90;2.60;;;13.10;99.90;;;;;;5041486;28;20221;-60
2023/09/15 02:02:24;;;;;;;6.87;2.80;;;13.10;99.90;;;;;;5039164;28;20210;-60
2023/09/15 02:04:53;;;;;;;3.30;2.70;;;13.10;99.90;;;;;;5039442;28;20210;-60
2023/09/15 02:07:19;;;;;;;3.00;2.70;;;13.10;99.90;;;;;;5041735;28;20795;-60
2023/09/15 02:09:46;;;;;;;3.60;3.10;;;13.10;99.90;;;;;;5042740;28;20205;-62
2023/09/15 02:12:13;;;;;;;3.00;2.70;;;13.10;99.90;;;;;;5038935;28;20230;-61
2023/09/15 02:14:39;;;;;;;3.60;3.07;;;13.20;99.90;;;;;;5038957;28;20214;-60
2023/09/15 02:17:06;;;;;;;3.40;2.77;;;13.20;99.90;;;;;;5041404;28;20255;-62
2023/09/15 02:19:33;;;;;;;3.50;2.57;;;13.10;99.90;;;;;;5042218;28;20263;-60
2023/09/15 02:22:02;;;;;;;4.23;2.80;;;13.10;99.90;;;;;;5040526;28;20619;-59
2023/09/15 02:24:30;;;;;;;4.90;3.07;;;13.10;99.90;;;;;;5038706;28;20207;-60
2023/09/15 02:26:57;;;;;;;4.17;3.10;;;13.20;99.90;;;;;;5040021;28;20218;-59
2023/09/15 02:29:25;;;;;;;3.50;2.93;;;13.20;99.90;;;;;;5042273;28;20198;-59
2023/09/15 02:31:52;;;;;;;5.10;3.07;;;13.20;99.90;;;;;;5041821;28;20212;-59
2023/09/15 02:34:18;;;;;;;4.97;2.80;;;13.30;99.90;;;;;;5038496;28;20680;-62
2023/09/15 02:36:45;;;;;;;3.90;2.87;;;13.20;99.90;;;;;;5039129;28;20225;-60
2023/09/15 02:39:13;;;;;;;4.13;3.20;;;13.20;99.90;;;;;;5042165;28;20213;-59
2023/09/15 02:41:40;;;;;;;3.83;3.00;;;13.20;99.90;;;;;;5042233;28;20205;-60
2023/09/15 02:44:08;;;;;;;4.43;2.57;;;13.20;99.90;;;;;;5039470;28;20213;-61
2023/09/15 02:46:35;;;;;;;3.60;2.80;;;13.30;99.90;;;;;;5038675;28;20237;-60
2023/09/15 02:49:03;;;;;;;2.80;2.53;;;13.30;99.90;;;;;;5040711;28;20202;-60
2023/09/15 02:51:29;;;;;;;3.17;2.67;;;13.20;99.90;;;;;;5042635;28;20201;-59
2023/09/15 02:53:56;;;;;;;3.53;2.93;;;13.20;99.90;;;;;;5041046;28;20682;-60
2023/09/15 02:56:24;;;;;;;3.40;2.63;;;13.20;99.90;;;;;;5038986;28;20206;-61
2023/09/15 02:58:51;;;;;;;3.90;2.90;;;13.30;99.90;;;;;;5038961;28;20202;-59
2023/09/15 03:01:18;;;;;;;3.83;2.77;;;13.20;99.90;;;;;;5042086;28;20260;-59
2023/09/15 03:03:46;;;;;;;4.13;2.70;;;13.20;99.90;;;;;;5041956;28;20300;-60
2023/09/15 03:06:13;;;;;;;2.97;2.77;;;13.20;99.90;;;;;;5038655;28;20228;-60
2023/09/15 03:08:40;;;;;;;2.60;2.40;;;13.20;99.90;;;;;;5038830;28;20226;-60
2023/09/15 03:11:12;;;;;;;3.20;2.77;;;13.10;99.90;;;;;;5040852;28;20209;-60
2023/09/15 03:13:40;;;;;;;4.30;3.33;;;13.10;99.90;;;;;;5041810;28;20676;-60
2023/09/15 03:16:11;;;;;;;5.30;2.90;;;13.10;99.90;;;;;;5039634;28;20202;-60
2023/09/15 03:18:38;;;;;;;15.60;11.17;;;13.20;99.90;;;;;;5039978;28;20764;-60
2023/09/15 03:21:05;;;;;;;4.63;3.90;;;13.20;99.90;;;;;;5044420;28;20218;-60
2023/09/15 03:23:32;;;;;;;4.63;3.30;;;13.20;99.90;;;;;;5045565;28;20216;-60
2023/09/15 03:26:00;;;;;;;6.03;3.37;;;13.20;99.90;;;;;;5044434;28;20558;-60
2023/09/15 03:28:27;;;;;;;3.67;3.13;;;13.20;99.90;;;;;;5042242;28;20656;-60
2023/09/15 03:30:55;;;;;;;3.80;3.30;;;13.20;99.90;;;;;;5043021;28;20198;-62
2023/09/15 03:33:23;;;;;;;4.67;3.50;;;13.20;99.90;;;;;;5045409;28;20204;-61
2023/09/15 03:35:50;;;;;;;4.90;3.40;;;13.20;99.90;;;;;;5045661;28;20198;-59
2023/09/15 03:38:16;;;;;;;4.13;3.13;;;13.20;99.90;;;;;;5042483;28;20701;-60
2023/09/15 03:40:43;;;;;;;3.70;3.30;;;13.20;99.90;;;;;;5042014;28;20219;-60
2023/09/15 03:43:10;;;;;;;4.03;3.33;;;13.20;99.90;;;;;;5044032;28;20226;-62
2023/09/15 03:45:36;;;;;;;5.77;3.80;;;13.20;99.90;;;;;;5045507;28;20198;-61
2023/09/15 03:48:05;;;;;;;3.63;3.17;;;13.20;99.90;;;;;;5043007;28;20232;-60
2023/09/15 03:50:32;;;;;;;6.97;3.80;;;13.20;99.90;;;;;;5041520;28;20195;-60
2023/09/15 03:52:59;;;;;;;3.90;3.40;;;13.20;99.90;;;;;;5042367;28;20209;-60
2023/09/15 03:55:26;;;;;;;3.87;3.20;;;13.20;99.90;;;;;;5044813;28;20744;-62
2023/09/15 03:57:53;;;;;;;5.53;3.27;;;13.10;99.90;;;;;;5044524;28;20311;-60
2023/09/15 04:00:21;;;;;;;4.40;3.40;;;13.10;99.90;;;;;;5041412;28;20214;-59
2023/09/15 04:02:48;;;;;;;7.33;3.40;;;13.10;99.90;;;;;;5041241;28;20253;-61
2023/09/15 04:05:16;;;;;;;5.10;3.50;;;13.10;99.90;;;;;;5044267;28;20202;-59
2023/09/15 04:07:43;;;;;;;3.53;2.90;;;13.10;99.90;;;;;;5044705;28;20221;-60
2023/09/15 04:10:10;;;;;;;4.67;3.10;;;13.10;99.90;;;;;;5041607;28;20197;-59
2023/09/15 04:12:37;;;;;;;4.93;3.10;;;13.10;99.90;;;;;;5041369;28;20203;-60
2023/09/15 04:15:05;;;;;;;3.13;2.83;;;13.00;99.90;;;;;;5042475;28;20229;-60
2023/09/15 04:17:32;;;;;;;5.27;3.07;;;12.90;99.90;;;;;;5044142;28;20693;-59
2023/09/15 04:19:59;;;;;;;6.17;3.10;;;12.80;99.90;;;;;;5043163;28;20241;-61
2023/09/15 04:22:28;;;;;;;4.43;3.03;;;12.80;99.90;;;;;;5040686;28;20198;-60
2023/09/15 04:24:55;;;;;;;3.83;3.43;;;12.70;99.90;;;;;;5040717;28;20283;-59
2023/09/15 04:27:21;;;;;;;4.03;2.90;;;12.70;99.90;;;;;;5044219;28;20225;-60
2023/09/15 04:29:53;;;;;;;6.47;3.27;;;12.80;99.90;;;;;;5043333;28;20201;-60
2023/09/15 04:32:20;;;;;;;3.93;3.40;;;12.80;99.90;;;;;;5040478;28;20238;-61
2023/09/15 04:34:46;;;;;;;5.53;3.33;;;12.80;99.90;;;;;;5040139;28;20738;-60
2023/09/15 04:37:13;;;;;;;6.00;3.40;;;12.70;99.90;;;;;;5040217;28;20226;-60
2023/09/15 04:39:42;;;;;;;6.23;3.03;;;12.70;99.90;;;;;;5040524;28;20226;-61
2023/09/15 04:42:10;;;;;;;5.07;3.33;;;12.60;99.90;;;;;;5042524;28;20206;-60
2023/09/15 04:44:37;;;;;;;4.30;3.57;;;12.60;99.90;;;;;;5043418;28;20583;-60
2023/09/15 04:47:04;;;;;;;4.47;3.00;;;12.50;99.90;;;;;;5041979;28;20283;-60
2023/09/15 04:49:31;;;;;;;4.60;3.50;;;12.50;99.90;;;;;;5040308;28;20287;-62
2023/09/15 04:51:58;;;;;;;4.00;3.20;;;12.50;99.90;;;;;;5040627;28;20202;-60
2023/09/15 04:54:25;;;;;;;4.73;4.10;;;12.60;99.90;;;;;;5043540;28;20206;-60
2023/09/15 04:56:53;;;;;;;4.40;3.00;;;12.60;99.90;;;;;;5043506;28;20265;-60
2023/09/15 04:59:20;;;;;;;3.97;3.17;;;12.60;99.90;;;;;;5040282;28;20198;-60
2023/09/15 05:01:48;;;;;;;4.33;3.37;;;12.70;99.90;;;;;;5039651;28;20222;-59
2023/09/15 05:04:15;;;;;;;5.73;3.50;;;12.70;99.90;;;;;;5042513;28;20690;-60
2023/09/15 05:06:41;;;;;;;6.13;3.60;;;12.70;99.90;;;;;;5043349;28;20217;-62
2023/09/15 05:09:10;;;;;;;7.83;3.43;;;12.70;99.90;;;;;;5041118;28;20202;-60
2023/09/15 05:11:37;;;;;;;4.20;3.47;;;12.80;99.90;;;;;;5039414;28;20680;-60
2023/09/15 05:14:05;;;;;;;8.23;3.43;;;12.80;99.90;;;;;;5040593;28;20205;-62
2023/09/15 05:16:33;;;;;;;4.17;3.33;;;12.90;99.90;;;;;;5042618;28;20249;-60
2023/09/15 05:19:00;;;;;;;4.57;3.43;;;12.90;99.90;;;;;;5041861;28;20244;-62
2023/09/15 05:21:26;;;;;;;4.87;3.60;;;12.90;99.90;;;;;;5039494;28;20222;-60
2023/09/15 05:23:53;;;;;;;3.93;3.50;;;12.90;99.90;;;;;;5039405;28;20202;-60
2023/09/15 05:26:20;;;;;;;5.53;3.40;;;13.00;99.90;;;;;;5039574;28;20413;-60
2023/09/15 05:28:46;;;;;;;3.50;3.13;;;13.00;99.90;;;;;;5039553;28;20207;-60
2023/09/15 05:31:15;;;;;;;3.97;2.97;;;13.10;99.90;;;;;;5041908;28;20212;-60
2023/09/15 05:33:41;;;;;;;3.97;3.40;;;13.10;99.90;;;;;;5042867;28;20220;-60
2023/09/15 05:36:08;;;;;;;5.87;3.20;;;13.20;99.90;;;;;;5040766;28;20202;-62
2023/09/15 05:38:35;;;;;;;7.40;3.43;;;13.20;99.90;;;;;;5039434;28;20213;-61
2023/09/15 05:41:03;;;;;;;6.00;3.40;;;13.30;99.90;;;;;;5040096;28;20215;-60
2023/09/15 05:43:30;;;;;;;8.73;3.40;;;13.40;99.90;;;;;;5042489;28;20623;-60
2023/09/15 05:45:57;;;;;;;6.33;3.30;;;13.50;99.90;;;;;;5041996;28;20209;-60
2023/09/15 05:48:26;;;;;;;13.97;3.53;;;13.60;99.90;;;;;;5039322;28;20226;-60
2023/09/15 05:50:53;;;;;;;4.70;3.13;;;13.70;99.90;;;;;;5039214;28;20582;-61
2023/09/15 05:53:20;;;;;;;5.33;3.17;;;13.90;99.90;;;;;;5039050;28;20592;-61
2023/09/15 05:55:47;;;;;;;5.40;3.50;;;14.00;99.90;;;;;;5039069;28;20225;-60
2023/09/15 05:58:14;;;;;;;3.73;3.20;;;14.10;99.90;;;;;;5041599;28;20226;-60
2023/09/15 06:00:41;;;;;;;5.33;3.10;;;14.40;99.90;;;;;;5042354;28;20244;-61
2023/09/15 06:03:08;;;;;;;7.67;2.67;;;15.00;99.90;;;;;;5040234;28;20210;-61
2023/09/15 06:05:37;;;;;;;3.85;2.85;;;15.90;99.90;;;;;;5038789;28;20202;-61
2023/09/15 06:08:06;;;;;;;3.03;2.58;;;16.90;99.90;;;;;;5040210;28;20218;-60
2023/09/15 06:10:33;;;;;;;4.45;3.08;;;17.80;99.90;;;;;;5042153;28;20624;-62
2023/09/15 06:12:59;;;;;;;2.85;2.53;;;18.80;99.90;;;;;;5041109;28;20240;-60
2023/09/15 06:15:26;;;;;;;3.88;2.80;;;19.80;99.90;;;;;;5038936;28;20209;-63
2023/09/15 06:17:53;;;;;;;4.22;2.55;;;21.60;99.90;;;;;;5038926;28;20233;-62
2023/09/15 06:20:20;;;;;;;6.57;2.70;;;21.60;99.90;;;;;;5042236;28;20221;-59
2023/09/15 06:22:48;;;;;;;5.25;2.63;;;22.40;99.90;;;;;;5042213;28;20236;-59
2023/09/15 06:25:15;;;;;;;3.53;2.38;;;22.80;99.90;;;;;;5039228;28;20301;-59
2023/09/15 06:27:41;;;;;;;3.42;2.95;;;22.60;99.90;;;;;;5038609;28;20222;-59
2023/09/15 06:30:09;;;;;;;6.30;2.72;;;22.80;99.90;;;;;;5040403;28;20688;-60
2023/09/15 06:32:36;;;;;;;12.85;3.15;;;23.00;99.90;;;;;;5042158;28;20205;-60
2023/09/15 06:35:02;;;;;;;7.20;3.00;;;23.10;99.90;;;;;;5040813;28;20365;-59
2023/09/15 06:37:29;;;;;;;8.27;3.13;;;22.30;99.90;;;;;;5038220;28;20301;-61
2023/09/15 06:39:57;;;;;;;5.22;2.90;;;21.80;99.90;;;;;;5038588;28;20218;-59
2023/09/15 06:42:24;;;;;;;13.25;3.50;;;21.10;99.90;;;;;;5041798;28;20205;-58
2023/09/15 06:44:50;;;;;;;4.88;2.97;;;21.70;99.90;;;;;;5042187;28;20205;-58
2023/09/15 06:47:17;;;;;;;6.75;3.47;;;21.20;99.90;;;;;;5041542;28;20238;-58
2023/09/15 06:49:44;;;;;;;6.85;3.33;;;21.50;99.90;;;;;;5042091;28;20212;-58
2023/09/15 06:52:11;;;;;;;4.68;3.10;;;21.10;99.90;;;;;;5039793;28;20206;-58
2023/09/15 06:54:37;;;;;;;5.75;3.25;;;20.90;99.90;;;;;;5041329;28;20209;-57
2023/09/15 06:57:06;;;;;;;4.93;3.30;;;20.90;99.90;;;;;;5043598;28;20218;-58
2023/09/15 06:59:32;;;;;;;5.35;3.28;;;21.30;99.90;;;;;;5046192;28;20207;-57
2023/09/15 07:02:02;;;;;;;6.60;3.55;;;21.40;99.90;;;;;;5044926;28;20217;-58
2023/09/15 07:04:29;;;;;;;5.15;3.58;;;21.40;99.90;;;;;;5042855;28;20221;-58
2023/09/15 07:06:55;;;;;;;6.50;3.47;;;21.20;99.90;;;;;;5042435;28;20716;-57
2023/09/15 07:09:22;;;;;;;7.38;3.50;;;20.70;99.90;;;;;;5042630;28;20210;-58
2023/09/15 07:11:49;;;;;;;4.20;3.15;;;20.90;99.90;;;;;;5042387;28;20202;-57
2023/09/15 07:14:18;;;;;;;5.15;3.80;;;21.20;99.90;;;;;;5044594;28;20233;-57
2023/09/15 07:16:44;;;;;;;5.18;3.70;;;20.60;99.90;;;;;;5045542;28;20229;-57
2023/09/15 07:19:11;;;;;;;5.68;3.50;;;20.70;99.90;;;;;;5043151;28;20213;-58
2023/09/15 07:21:40;;;;;;;4.80;3.38;;;22.00;99.90;;;;;;5041839;28;20217;-60
2023/09/15 07:24:07;;;;;;;6.13;3.67;;;23.80;99.90;;;;;;5043323;28;20206;-59
2023/09/15 07:26:34;;;;;;;4.22;3.22;;;25.50;99.90;;;;;;5045204;28;20221;-61
2023/09/15 07:29:01;;;;;;;6.70;3.47;;;26.80;99.90;;;;;;5044210;28;20590;-59
2023/09/15 07:31:33;;;;;;;7.15;3.58;;;27.90;99.90;;;;;;5041895;28;20270;-59
2023/09/15 07:34:00;;;;;;;5.05;3.47;;;29.10;99.90;;;;;;5041896;28;20207;-59
2023/09/15 07:36:27;;;;;;;6.32;3.58;;;29.90;99.90;;;;;;5044973;28;20206;-59
2023/09/15 07:38:53;;;;;;;5.55;3.03;;;29.70;99.90;;;;;;5045286;28;20213;-58
2023/09/15 07:41:20;;;;;;;14.10;3.95;;;29.40;99.90;;;;;;5042004;28;20222;-58
2023/09/15 07:43:47;;;;;;;7.47;3.58;;;28.50;99.90;;;;;;5041829;28;20664;-59
2023/09/15 07:46:14;;;;;;;7.15;3.28;;;27.90;99.90;;;;;;5043569;28;20214;-59
2023/09/15 07:48:42;;;;;;;9.50;3.55;;;28.20;99.90;;;;;;5045282;28;20229;-60
2023/09/15 07:51:11;;;;;;;5.90;3.80;;;29.20;99.90;;;;;;5042951;28;20209;-59
2023/09/15 07:53:37;;;;;;;4.93;3.50;;;29.90;99.20;;;;;;5036801;28;20539;-60
2023/09/15 07:56:04;;;;;;;4.93;3.75;;;29.90;98.70;;;;;;5043704;28;20565;-62
2023/09/15 07:58:31;;;;;;;6.03;3.53;;;29.40;98.80;;;;;;5040974;28;20229;-61
2023/09/15 08:00:58;;;;;;;5.22;4.18;;;28.30;99.90;;;;;;5040871;28;20605;-61
2023/09/15 08:03:24;;;;;;;6.43;4.40;;;27.00;99.90;;;;;;5043920;28;20229;-62
2023/09/15 08:05:53;;;;;;;6.45;4.45;;;25.70;99.90;;;;;;5043577;28;20202;-59
2023/09/15 08:08:19;;;;;;;5.07;4.18;;;24.70;99.90;;;;;;5038373;28;20222;-58
2023/09/15 08:10:46;;;;;;;6.13;4.40;;;23.20;99.90;;;;;;5031974;28;20210;-62
2023/09/15 08:13:13;;;;;;;5.63;4.03;;;22.10;99.90;;;;;;5031971;28;20218;-58
2023/09/15 08:15:40;;;;;;;6.00;4.43;;;21.70;99.90;;;;;;5040179;28;20206;-57
2023/09/15 08:18:06;;;;;;;6.22;4.47;;;21.50;99.90;;;;;;5040558;28;20279;-58
2023/09/15 08:20:33;;;;;;;7.45;4.60;;;21.30;99.90;;;;;;5032208;28;20584;-58
2023/09/15 08:23:03;;;;;;;6.18;4.15;;;21.30;99.90;;;;;;5031952;28;20621;-58
2023/09/15 08:25:30;;;;;;;8.38;4.32;;;21.10;99.90;;;;;;5032276;28;20664;-57
2023/09/15 08:27:56;;;;;;;5.35;3.83;;;21.00;99.90;;;;;;5039912;28;20583;-57
2023/09/15 08:30:24;;;;;;;4.70;4.22;;;20.90;99.90;;;;;;5032100;28;20210;-58
2023/09/15 08:32:51;;;;;;;4.68;4.15;;;20.80;99.90;;;;;;5032275;28;20210;-58
2023/09/15 08:35:17;;;;;;;5.55;4.38;;;20.50;99.90;;;;;;5039954;28;20296;-58
2023/09/15 08:37:44;;;;;;;7.18;4.60;;;20.30;99.90;;;;;;5046221;28;20226;-57
2023/09/15 08:40:13;;;;;;;5.72;4.20;;;20.30;99.90;;;;;;5033063;28;20229;-58
2023/09/15 08:42:40;;;;;;;6.15;4.65;;;20.40;99.90;;;;;;5031703;28;20222;-57
2023/09/15 08:45:08;;;;;;;5.70;4.57;;;20.60;99.90;;;;;;5031251;28;20214;-58
2023/09/15 08:47:38;;;;;;;7.25;4.60;;;20.80;99.90;;;;;;5031465;28;20253;-58
2023/09/15 08:50:06;;;;;;;7.28;4.90;;;20.90;99.90;;;;;;5031697;28;20214;-58
2023/09/15 08:52:34;;;;;;;8.63;4.80;;;21.00;99.90;;;;;;5031751;28;20206;-57
2023/09/15 08:55:02;;;;;;;7.65;5.32;;;21.30;99.90;;;;;;5031626;28;20210;-58
2023/09/15 08:57:31;;;;;;;7.22;4.13;;;21.40;99.90;;;;;;5031561;28;20245;-57
2023/09/15 09:00:00;;;;;;;4.70;4.18;;;21.40;99.90;;;;;;5039606;28;20598;-58
2023/09/15 09:02:28;;;;;;;6.13;3.70;;;21.50;99.90;;;;;;5035571;28;20217;-57
2023/09/15 09:04:54;;;;;;;4.60;3.67;;;21.50;99.90;;;;;;5035307;28;20668;-56
2023/09/15 09:07:22;;;;;;;4.35;3.67;;;21.60;99.90;;;;;;5031525;28;20230;-56
2023/09/15 09:09:49;;;;;;;5.35;3.95;;;21.70;99.90;;;;;;5031510;28;20206;-57
2023/09/15 09:12:16;;;;;;;6.28;4.00;;;21.90;99.90;;;;;;5031044;28;20746;-56
2023/09/15 09:14:44;;;;;;;7.55;4.57;;;21.90;99.90;;;;;;5031669;28;20211;-57
2023/09/15 09:17:12;;;;;;;5.32;4.32;;;21.90;99.90;;;;;;5038597;28;20229;-57
2023/09/15 09:19:42;;;;;;;4.88;3.92;;;21.90;99.90;;;;;;5031616;28;20576;-56
2023/09/15 09:22:09;;;;;;;6.40;4.22;;;22.10;99.90;;;;;;5039248;28;20739;-55
2023/09/15 09:24:36;;;;;;;8.23;4.47;;;22.30;99.90;;;;;;5030779;28;20236;-55
2023/09/15 09:27:08;;;;;;;5.22;4.30;;;22.50;99.90;;;;;;5030749;28;20230;-56
2023/09/15 09:29:35;;;;;;;7.00;4.65;;;22.60;99.90;;;;;;5030883;28;20206;-56
2023/09/15 09:32:04;;;;;;;5.07;4.43;;;22.60;99.90;;;;;;5031209;28;20206;-55
2023/09/15 09:34:30;;;;;;;5.55;4.72;;;22.60;99.90;;;;;;5038679;28;20631;-55
2023/09/15 09:36:57;;;;;;;5.25;4.30;;;22.60;99.90;;;;;;5030877;28;20230;-56
2023/09/15 09:39:26;;;;;;;9.32;4.70;;;22.50;99.90;;;;;;5030013;28;20206;-55
2023/09/15 09:41:52;;;;;;;5.45;4.13;;;22.60;99.90;;;;;;5030275;28;20226;-55
2023/09/15 09:44:21;;;;;;;5.45;4.22;;;22.60;99.90;;;;;;5030185;28;20210;-56
2023/09/15 09:46:51;;;;;;;10.60;4.40;;;22.70;99.90;;;;;;5030452;28;20399;-56
2023/09/15 09:49:21;;;;;;;5.57;4.70;;;22.70;99.90;;;;;;5038565;28;20214;-55
2023/09/15 09:51:51;;;;;;;4.88;3.85;;;22.70;99.90;;;;;;5030262;28;20206;-55
2023/09/15 09:54:18;;;;;;;5.85;4.00;;;22.80;99.90;;;;;;5029801;28;20702;-55
2023/09/15 09:56:49;;;;;;;12.45;4.45;;;22.80;99.90;;;;;;5038637;28;20234;-55
2023/09/15 09:59:16;;;;;;;5.97;3.85;;;23.10;99.90;;;;;;5030508;28;20233;-57
2023/09/15 10:01:42;;;;;;;5.32;4.40;;;23.20;99.90;;;;;;5038426;28;20246;-55
2023/09/15 10:04:09;;;;;;;10.07;4.55;;;23.40;99.90;;;;;;5029668;28;20299;-55
2023/09/15 10:06:38;;;;;;;5.38;4.43;;;23.60;99.90;;;;;;5042678;28;20229;-56
2023/09/15 10:09:06;;;;;;;5.10;4.15;;;23.60;99.90;;;;;;5032823;28;20703;-55
2023/09/15 10:11:34;;;;;;;6.38;4.07;;;23.60;99.90;;;;;;5030240;28;20229;-56
2023/09/15 10:14:03;;;;;;;5.20;4.43;;;23.70;99.90;;;;;;5029908;28;20206;-56
2023/09/15 10:16:31;;;;;;;5.10;4.60;;;23.80;99.90;;;;;;5029752;28;20746;-59
2023/09/15 10:18:59;;;;;;;4.68;4.13;;;23.80;99.90;;;;;;5029229;28;20219;-56
2023/09/15 10:21:28;;;;;;;6.30;4.13;;;23.90;99.90;;;;;;5029621;28;20257;-56
2023/09/15 10:24:03;;;;;;;4.90;4.40;;;24.00;99.90;;;;;;5036731;28;20209;-60
2023/09/15 10:26:30;;;;;;;4.93;4.38;;;24.10;99.90;;;;;;5029551;28;20527;-60
2023/09/15 10:28:57;;;;;;;6.57;4.10;;;24.10;99.90;;;;;;5031587;28;20226;-59
2023/09/15 10:31:24;;;;;;;5.47;4.00;;;24.30;99.90;;;;;;5041383;28;20214;-61
2023/09/15 10:33:51;;;;;;;4.50;4.13;;;24.50;99.90;;;;;;5041591;28;20581;-59
2023/09/15 10:36:19;;;;;;;5.40;4.55;;;24.60;99.90;;;;;;5033754;28;20222;-57
2023/09/15 10:38:47;;;;;;;4.63;4.03;;;24.70;99.90;;;;;;5034185;28;20237;-57
2023/09/15 10:41:26;;;;;;;7.10;4.07;;;24.80;99.90;;;;;;5033821;28;20495;-58
2023/09/15 10:43:53;;;;;;;4.95;4.22;;;25.00;99.90;;;;;;5033391;28;20202;-58
2023/09/15 10:46:20;;;;;;;6.28;4.40;;;25.30;99.90;;;;;;5033410;28;20606;-58
2023/09/15 10:48:48;;;;;;;5.47;4.30;;;25.20;99.90;;;;;;5034087;28;20587;-58
2023/09/15 10:51:18;;;;;;;5.95;4.80;;;25.20;99.90;;;;;;5033994;28;20426;-59
2023/09/15 10:53:45;;;;;;;7.05;4.35;;;25.20;99.90;;;;;;5033302;28;20206;-59
2023/09/15 10:56:13;;;;;;;4.75;3.90;;;25.30;99.90;;;;;;5033458;28;20309;-59
2023/09/15 10:58:42;;;;;;;4.93;4.13;;;25.60;99.90;;;;;;5033979;28;20540;-58
2023/09/15 11:01:10;;;;;;;4.22;3.83;;;25.70;99.90;;;;;;5041315;28;20306;-60
2023/09/15 11:03:38;;;;;;;4.22;3.65;;;25.70;99.90;;;;;;5032881;28;20226;-59
2023/09/15 11:06:08;;;;;;;5.00;3.90;;;25.80;99.90;;;;;;5033184;28;20237;-58
2023/09/15 11:08:36;;;;;;;4.25;3.85;;;25.80;99.90;;;;;;5032990;28;20221;-59
2023/09/15 11:11:04;;;;;;;6.50;3.83;;;26.00;99.90;;;;;;5041268;28;20205;-58
2023/09/15 11:13:31;;;;;;;4.50;3.40;;;26.00;99.90;;;;;;5033117;28;20301;-59
2023/09/15 11:15:59;;;;;;;5.28;3.47;;;26.10;99.90;;;;;;5032903;28;20276;-59
2023/09/15 11:18:27;;;;;;;4.57;3.00;;;26.20;99.90;;;;;;5032522;28;20230;-58
2023/09/15 11:20:55;;;;;;;3.05;2.75;;;26.20;99.90;;;;;;5032725;28;20214;-58
2023/09/15 11:23:24;;;;;;;4.97;2.95;;;26.20;99.90;;;;;;5032349;28;20234;-59
2023/09/15 11:25:59;;;;;;;3.00;2.72;;;26.30;99.90;;;;;;5032642;28;20218;-58
2023/09/15 11:28:26;;;;;;;3.80;2.65;;;26.40;99.90;;;;;;5032543;28;20303;-58
2023/09/15 11:30:53;;;;;;;3.90;2.90;;;26.50;99.90;;;;;;5032814;28;20210;-57
2023/09/15 11:33:22;;;;;;;3.50;3.17;;;26.60;99.90;;;;;;5034752;28;20206;-58
2023/09/15 11:35:49;;;;;;;3.00;2.70;;;26.50;99.90;;;;;;5038281;28;20299;-58
2023/09/15 11:38:16;;;;;;;4.38;3.10;;;26.60;99.90;;;;;;5032991;28;20230;-58
2023/09/15 11:40:46;;;;;;;8.18;7.40;;;26.70;99.90;;;;;;5032344;28;20210;-58
2023/09/15 11:43:13;;;;;;;4.40;3.97;;;26.70;99.90;;;;;;5031786;28;20225;-58
2023/09/15 11:45:41;;;;;;;3.20;2.80;;;26.80;99.90;;;;;;5032515;28;20216;-58
2023/09/15 11:48:08;;;;;;;4.03;2.60;;;27.00;99.90;;;;;;5031855;28;20270;-59
2023/09/15 11:50:37;;;;;;;2.90;2.60;;;27.10;99.90;;;;;;5036544;28;20210;-58
2023/09/15 11:53:04;;;;;;;3.25;2.95;;;27.30;99.90;;;;;;5035777;28;20632;-58
2023/09/15 11:55:31;;;;;;;4.70;2.90;;;27.40;99.90;;;;;;5032184;28;20210;-57
2023/09/15 11:57:58;;;;;;;3.35;3.05;;;27.30;99.90;;;;;;5032301;28;20230;-58
2023/09/15 12:00:28;;;;;;;3.58;2.80;;;27.30;99.90;;;;;;5040391;28;21630;-57
2023/09/15 12:02:56;;;;;;;3.92;3.20;;;27.50;99.90;;;;;;5040736;28;20262;-62
2023/09/15 12:05:23;;;;;;;3.42;2.95;;;27.40;99.90;;;;;;5032227;28;20210;-62
2023/09/15 12:07:52;;;;;;;3.78;2.80;;;27.40;99.90;;;;;;5032352;28;20232;-62
2023/09/15 12:10:22;;;;;;;4.35;3.15;;;27.30;99.90;;;;;;5034535;28;20207;-61
2023/09/15 12:12:49;;;;;;;3.30;2.70;;;27.30;99.90;;;;;;5038268;28;20656;-61
2023/09/15 12:15:16;;;;;;;4.50;2.90;;;27.30;99.90;;;;;;5032365;28;20555;-61
2023/09/15 12:17:45;;;;;;;3.15;2.85;;;27.40;99.90;;;;;;5037399;28;20222;-62
2023/09/15 12:20:12;;;;;;;3.17;2.92;;;27.40;99.90;;;;;;5034455;28;20238;-62
2023/09/15 12:22:40;;;;;;;3.67;3.38;;;27.40;99.90;;;;;;5032345;28;20222;-62
2023/09/15 12:25:11;;;;;;;3.63;3.10;;;27.40;99.90;;;;;;5032253;28;20233;-61
2023/09/15 12:27:39;;;;;;;3.35;3.05;;;27.50;99.90;;;;;;5040181;28;20229;-61
2023/09/15 12:30:06;;;;;;;5.03;3.00;;;27.60;99.90;;;;;;5031344;28;20268;-61
2023/09/15 12:32:35;;;;;;;3.30;3.00;;;27.80;99.90;;;;;;5031817;28;20207;-61
2023/09/15 12:35:05;;;;;;;5.00;2.70;;;27.90;99.90;;;;;;5039457;28;20205;-61
2023/09/15 12:37:32;;;;;;;4.47;2.80;;;27.80;99.90;;;;;;5040023;28;20246;-61
2023/09/15 12:39:59;;;;;;;2.70;2.38;;;27.80;99.00;;;;;;5031898;28;20210;-62
2023/09/15 12:42:27;;;;;;;4.43;2.60;;;27.60;98.80;;;;;;5031628;28;20233;-61
2023/09/15 12:44:54;;;;;;;4.13;2.63;;;27.60;98.90;;;;;;5031635;28;20230;-62
2023/09/15 12:47:20;;;;;;;4.32;2.30;;;27.70;98.70;;;;;;5031314;28;20238;-60